Time;durP1;ratioP1;P1;durP2;ratioP2;P2;SDS_P1;SDS_P2;PMS_P1;PMS_P2;Temp;Humidity;BMP_temperature;BMP_pressure;BME280_temperature;BME280_humidity;BME280_pressure;Samples;Min_cycle;Max_cycle;Signal;HPM_P1;HPM_P2
2023/02/24 00:00:52;;;;;;;72.83;33.77;;;1.90;99.90;;;;;;4146024;28;20723;-63
2023/02/24 00:02:53;;;;;;;63.53;32.10;;;1.90;99.90;;;;;;4146782;28;20260;-63
2023/02/24 00:04:54;;;;;;;66.23;32.83;;;1.80;99.90;;;;;;4151114;28;20283;-63
2023/02/24 00:06:55;;;;;;;60.57;30.77;;;1.80;99.90;;;;;;4162546;28;20283;-63
2023/02/24 00:08:56;;;;;;;60.27;31.47;;;1.70;99.90;;;;;;4162088;28;20310;-63
2023/02/24 00:10:57;;;;;;;63.87;30.50;;;1.70;99.90;;;;;;4162076;28;20742;-62
2023/02/24 00:12:59;;;;;;;59.70;29.17;;;1.70;99.90;;;;;;4149218;28;20279;-66
2023/02/24 00:15:00;;;;;;;60.00;29.87;;;1.60;99.90;;;;;;4145676;28;20621;-62
2023/02/24 00:17:01;;;;;;;58.17;27.87;;;1.50;99.90;;;;;;4160072;28;20956;-62
2023/02/24 00:19:06;;;;;;;59.80;25.67;;;1.50;99.90;;;;;;4147051;28;20287;-63
2023/02/24 00:21:14;;;;;;;54.13;28.17;;;1.50;99.90;;;;;;4146564;28;21075;-63
2023/02/24 00:23:17;;;;;;;57.83;28.40;;;1.50;99.90;;;;;;4160658;28;20735;-64
2023/02/24 00:25:18;;;;;;;63.73;30.73;;;1.40;99.90;;;;;;4162297;28;20305;-63
2023/02/24 00:27:19;;;;;;;69.33;34.03;;;1.40;99.90;;;;;;4161655;28;20275;-63
2023/02/24 00:29:21;;;;;;;61.23;31.10;;;1.40;99.90;;;;;;4161126;28;20673;-63
2023/02/24 00:31:22;;;;;;;69.27;33.47;;;1.40;99.90;;;;;;4129224;28;20327;-66
2023/02/24 00:33:24;;;;;;;66.03;31.20;;;1.40;99.90;;;;;;4129894;28;20303;-63
2023/02/24 00:35:25;;;;;;;62.50;32.37;;;1.40;99.90;;;;;;4128879;28;20316;-63
2023/02/24 00:37:26;;;;;;;72.27;35.13;;;1.40;99.90;;;;;;4143892;28;20767;-62
2023/02/24 00:39:34;;;;;;;76.53;39.73;;;1.40;99.90;;;;;;4153839;28;20279;-63
2023/02/24 00:41:41;;;;;;;80.60;37.87;;;1.40;99.90;;;;;;4158638;28;20267;-63
2023/02/24 00:43:47;;;;;;;72.27;37.67;;;1.40;99.90;;;;;;4145130;28;20845;-63
2023/02/24 00:45:50;;;;;;;78.97;35.90;;;1.30;99.90;;;;;;4145751;28;20264;-64
2023/02/24 00:47:51;;;;;;;69.97;34.10;;;1.30;99.90;;;;;;4145435;28;20318;-63
2023/02/24 00:49:52;;;;;;;72.77;34.00;;;1.30;99.90;;;;;;4145266;28;20275;-69
2023/02/24 00:51:54;;;;;;;69.17;32.57;;;1.30;99.90;;;;;;4145491;28;20755;-62
2023/02/24 00:53:56;;;;;;;67.73;33.00;;;1.30;99.90;;;;;;4144784;28;20329;-62
2023/02/24 00:56:01;;;;;;;66.60;33.07;;;1.30;99.90;;;;;;4156834;28;20302;-62
2023/02/24 00:58:06;;;;;;;73.90;34.27;;;1.30;99.90;;;;;;4159450;28;20325;-62
2023/02/24 01:00:12;;;;;;;72.87;33.03;;;1.30;99.90;;;;;;4162335;28;20615;-61
2023/02/24 01:02:14;;;;;;;67.50;32.90;;;1.30;99.90;;;;;;4160829;28;20279;-62
2023/02/24 01:04:18;;;;;;;68.33;33.83;;;1.40;99.90;;;;;;4132830;28;20280;-62
2023/02/24 01:06:21;;;;;;;63.60;30.33;;;1.40;99.90;;;;;;4144684;28;20876;-61
2023/02/24 01:08:22;;;;;;;61.43;30.43;;;1.40;99.90;;;;;;4145765;28;20283;-62
2023/02/24 01:10:25;;;;;;;61.27;30.77;;;1.40;99.90;;;;;;4150979;28;20286;-61
2023/02/24 01:12:48;;;;;;;63.50;32.27;;;1.40;99.90;;;;;;4161366;28;20283;-63
2023/02/24 01:14:52;;;;;;;65.87;34.00;;;1.40;99.90;;;;;;4156599;28;20287;-61
2023/02/24 01:16:53;;;;;;;65.80;33.23;;;1.40;99.90;;;;;;4145743;28;20318;-62
2023/02/24 01:18:54;;;;;;;67.90;32.17;;;1.30;99.90;;;;;;4148760;28;20729;-61
2023/02/24 01:20:57;;;;;;;65.63;32.10;;;1.30;99.90;;;;;;4148604;28;20287;-62
2023/02/24 01:22:58;;;;;;;63.17;32.03;;;1.40;99.90;;;;;;4156972;28;20329;-61
2023/02/24 01:24:59;;;;;;;62.80;30.63;;;1.40;99.90;;;;;;4161619;28;21061;-62
2023/02/24 01:27:00;;;;;;;65.50;31.57;;;1.40;99.90;;;;;;4160505;28;20262;-62
2023/02/24 01:29:08;;;;;;;60.00;30.97;;;1.40;99.90;;;;;;4161730;28;20324;-62
2023/02/24 01:31:09;;;;;;;64.53;29.73;;;1.40;99.90;;;;;;4161354;28;20259;-63
2023/02/24 01:33:13;;;;;;;56.70;29.87;;;1.40;99.90;;;;;;4148441;28;20295;-65
2023/02/24 01:35:15;;;;;;;64.50;30.83;;;1.40;99.90;;;;;;4128419;28;20260;-61
2023/02/24 01:37:18;;;;;;;69.93;31.40;;;1.40;99.90;;;;;;4128416;28;21203;-61
2023/02/24 01:39:19;;;;;;;67.40;32.70;;;1.40;99.90;;;;;;4143172;28;20274;-61
2023/02/24 01:41:26;;;;;;;63.30;30.33;;;1.40;99.90;;;;;;4159947;28;20274;-62
2023/02/24 01:43:27;;;;;;;63.57;30.90;;;1.40;99.90;;;;;;4161607;28;20305;-61
2023/02/24 01:45:35;;;;;;;61.43;29.70;;;1.30;99.90;;;;;;4160476;28;20340;-62
2023/02/24 01:47:37;;;;;;;59.03;29.67;;;1.30;99.90;;;;;;4161445;28;20328;-63
2023/02/24 01:49:42;;;;;;;59.53;28.90;;;1.30;99.90;;;;;;4158658;28;20427;-62
2023/02/24 01:51:57;;;;;;;61.27;28.93;;;1.20;99.90;;;;;;4149724;28;20283;-64
2023/02/24 01:54:00;;;;;;;58.57;27.63;;;1.20;99.90;;;;;;4144176;28;20275;-65
2023/02/24 01:56:01;;;;;;;59.83;28.00;;;1.10;99.90;;;;;;4156095;28;20345;-62
2023/02/24 01:58:21;;;;;;;57.60;27.97;;;1.10;99.90;;;;;;4152548;28;20263;-62
2023/02/24 02:00:37;;;;;;;60.80;28.35;;;1.10;99.90;;;;;;4145442;28;20267;-62
2023/02/24 02:02:43;;;;;;;51.30;27.10;;;1.10;99.90;;;;;;4144609;28;20030;-61
2023/02/24 02:05:05;;;;;;;50.33;25.63;;;1.10;99.90;;;;;;4153028;28;20263;-61
2023/02/24 02:07:09;;;;;;;51.70;26.40;;;1.00;99.90;;;;;;4147072;28;20271;-62
2023/02/24 02:09:14;;;;;;;50.47;26.23;;;1.10;99.90;;;;;;4148509;28;20723;-62
2023/02/24 02:11:22;;;;;;;56.07;28.17;;;1.10;99.90;;;;;;4147528;28;20727;-62
2023/02/24 02:13:25;;;;;;;53.70;28.03;;;1.10;99.90;;;;;;4148492;28;20260;-63
2023/02/24 02:15:31;;;;;;;57.80;28.37;;;1.10;99.90;;;;;;4147210;28;20260;-61
2023/02/24 02:17:50;;;;;;;53.27;27.47;;;1.10;99.90;;;;;;4158579;28;20287;-61
2023/02/24 02:20:21;;;;;;;54.13;27.17;;;1.10;99.90;;;;;;4160090;28;20270;-61
2023/02/24 02:22:44;;;;;;;57.85;26.90;;;1.10;99.90;;;;;;4128199;28;20330;-61
2023/02/24 02:24:54;;;;;;;54.23;26.50;;;1.10;99.90;;;;;;4154699;28;20374;-62
2023/02/24 02:27:19;;;;;;;53.93;24.83;;;1.10;99.90;;;;;;4163660;28;20297;-62
2023/02/24 02:29:29;;;;;;;51.93;25.60;;;1.00;99.90;;;;;;4149196;28;20682;-62
2023/02/24 02:31:39;;;;;;;56.57;25.50;;;1.00;99.90;;;;;;4148033;28;20317;-62
2023/02/24 02:34:04;;;;;;;51.42;24.27;;;0.90;99.90;;;;;;4148504;28;20275;-61
2023/02/24 02:36:21;;;;;;;57.33;28.03;;;0.80;99.90;;;;;;4137524;28;20038;-62
2023/02/24 02:38:45;;;;;;;59.60;27.27;;;0.80;99.90;;;;;;4147872;28;20283;-61
2023/02/24 02:41:16;;;;;;;50.43;23.87;;;0.80;99.90;;;;;;4158514;28;20751;-63
2023/02/24 02:43:37;;;;;;;48.17;24.85;;;0.80;99.90;;;;;;4131524;28;20280;-62
2023/02/24 02:45:46;;;;;;;55.37;27.43;;;0.80;99.90;;;;;;4150857;28;20096;-62
2023/02/24 02:47:49;;;;;;;47.53;23.83;;;0.80;99.90;;;;;;4153418;28;20287;-62
2023/02/24 02:50:20;;;;;;;48.50;24.27;;;0.80;99.90;;;;;;4146462;28;20275;-63
2023/02/24 02:52:39;;;;;;;54.30;25.43;;;0.80;99.90;;;;;;4147548;28;20271;-62
2023/02/24 02:54:48;;;;;;;52.23;25.40;;;0.80;99.90;;;;;;4130549;28;20747;-62
2023/02/24 02:57:00;;;;;;;56.53;28.43;;;0.80;99.90;;;;;;4131696;28;20327;-64
2023/02/24 02:59:04;;;;;;;56.87;27.73;;;0.70;99.90;;;;;;4139538;28;20344;-62
2023/02/24 03:01:06;;;;;;;61.97;28.90;;;0.70;99.90;;;;;;4155588;28;20349;-62
2023/02/24 03:03:12;;;;;;;58.03;28.97;;;0.60;99.90;;;;;;4146855;28;20275;-62
2023/02/24 03:05:19;;;;;;;60.60;27.87;;;0.60;99.90;;;;;;4148377;28;20279;-62
2023/02/24 03:07:26;;;;;;;62.90;30.27;;;0.60;99.90;;;;;;4147513;28;20279;-62
2023/02/24 03:09:37;;;;;;;59.27;27.93;;;0.60;99.90;;;;;;4162439;28;20283;-64
2023/02/24 03:11:40;;;;;;;62.93;29.73;;;0.60;99.90;;;;;;4162031;28;20325;-62
2023/02/24 03:13:48;;;;;;;67.00;31.30;;;0.60;99.90;;;;;;4163893;28;20258;-62
2023/02/24 03:15:52;;;;;;;62.20;31.43;;;0.60;99.90;;;;;;4146569;28;20333;-65
2023/02/24 03:18:01;;;;;;;60.23;30.13;;;0.70;99.90;;;;;;4162755;28;20456;-63
2023/02/24 03:20:32;;;;;;;60.30;28.03;;;0.70;99.90;;;;;;4149506;28;20329;-61
2023/02/24 03:22:39;;;;;;;59.42;27.17;;;0.70;99.90;;;;;;4147496;28;20263;-61
2023/02/24 03:24:43;;;;;;;50.67;25.87;;;0.70;99.90;;;;;;4146312;28;20076;-61
2023/02/24 03:26:51;;;;;;;50.77;25.67;;;0.70;99.90;;;;;;4147270;28;20330;-60
2023/02/24 03:29:00;;;;;;;55.57;27.60;;;0.70;99.90;;;;;;4149949;28;20764;-62
2023/02/24 03:31:26;;;;;;;58.50;30.03;;;0.70;99.90;;;;;;4147263;28;20326;-63
2023/02/24 03:33:44;;;;;;;57.80;29.17;;;0.80;99.90;;;;;;4146969;28;20279;-62
2023/02/24 03:35:45;;;;;;;67.53;32.43;;;0.80;99.90;;;;;;4151283;28;20274;-63
2023/02/24 03:37:48;;;;;;;56.37;28.27;;;0.90;99.90;;;;;;4149606;28;20283;-62
2023/02/24 03:39:52;;;;;;;60.73;29.00;;;0.90;99.90;;;;;;4159639;28;20291;-63
2023/02/24 03:42:14;;;;;;;58.87;28.33;;;0.90;99.90;;;;;;4162096;28;20827;-63
2023/02/24 03:44:15;;;;;;;50.37;26.13;;;0.90;99.90;;;;;;4163535;28;20271;-62
2023/02/24 03:46:17;;;;;;;54.30;26.73;;;0.90;99.90;;;;;;4162060;28;20267;-63
2023/02/24 03:48:18;;;;;;;55.80;25.53;;;0.80;99.90;;;;;;4146757;28;20319;-62
2023/02/24 03:50:20;;;;;;;56.90;27.40;;;0.80;99.90;;;;;;4147853;28;20275;-63
2023/02/24 03:52:31;;;;;;;55.93;25.83;;;0.90;99.90;;;;;;4146910;28;20330;-63
2023/02/24 03:54:45;;;;;;;54.90;26.98;;;0.90;99.90;;;;;;4145663;28;20271;-62
2023/02/24 03:56:57;;;;;;;55.17;26.23;;;0.90;99.90;;;;;;4146795;28;20445;-62
2023/02/24 03:59:01;;;;;;;53.73;26.80;;;0.90;99.90;;;;;;4145863;28;20295;-62
2023/02/24 04:01:30;;;;;;;58.70;27.50;;;1.00;99.90;;;;;;4146861;28;20263;-62
2023/02/24 04:03:56;;;;;;;50.93;24.73;;;0.90;99.90;;;;;;4141677;28;20303;-66
2023/02/24 04:05:57;;;;;;;50.40;25.17;;;0.80;99.90;;;;;;4140682;28;20283;-62
2023/02/24 04:08:03;;;;;;;53.60;26.57;;;0.70;99.90;;;;;;4160070;28;20668;-61
2023/02/24 04:10:23;;;;;;;50.27;28.23;;;0.50;99.90;;;;;;4157500;28;20667;-62
2023/02/24 04:12:45;;;;;;;51.57;25.50;;;0.40;99.90;;;;;;4145615;28;20314;-62
2023/02/24 04:15:10;;;;;;;56.30;26.50;;;0.40;99.90;;;;;;4151621;28;20274;-62
2023/02/24 04:17:29;;;;;;;56.30;27.27;;;0.40;99.90;;;;;;4160632;28;20302;-62
2023/02/24 04:19:37;;;;;;;56.83;25.57;;;0.40;99.90;;;;;;4150651;28;20280;-63
2023/02/24 04:21:41;;;;;;;50.00;25.83;;;0.50;99.90;;;;;;4153929;28;20325;-62
2023/02/24 04:23:44;;;;;;;55.37;26.90;;;0.50;99.90;;;;;;4149127;28;20329;-63
2023/02/24 04:25:49;;;;;;;51.50;26.13;;;0.60;99.90;;;;;;4145291;28;20349;-63
2023/02/24 04:27:53;;;;;;;53.93;25.73;;;0.60;99.90;;;;;;4153742;28;20762;-64
2023/02/24 04:29:58;;;;;;;55.97;26.83;;;0.60;99.90;;;;;;4150215;28;20275;-63
2023/02/24 04:32:08;;;;;;;53.13;25.67;;;0.60;99.90;;;;;;4146505;28;20290;-63
2023/02/24 04:34:09;;;;;;;53.97;25.10;;;0.60;99.90;;;;;;4146042;28;20665;-69
2023/02/24 04:36:11;;;;;;;50.87;26.07;;;0.60;99.90;;;;;;4160754;28;20267;-62
2023/02/24 04:38:13;;;;;;;50.70;26.30;;;0.70;99.90;;;;;;4159354;28;20278;-65
2023/02/24 04:40:17;;;;;;;53.80;28.17;;;0.70;99.90;;;;;;4160752;28;20283;-63
2023/02/24 04:42:18;;;;;;;44.97;24.40;;;0.70;99.90;;;;;;4143923;28;20358;-62
2023/02/24 04:44:21;;;;;;;53.30;25.87;;;0.60;99.90;;;;;;4147150;28;20357;-62
2023/02/24 04:46:22;;;;;;;51.93;26.47;;;0.70;99.90;;;;;;4146185;28;20329;-62
2023/02/24 04:48:23;;;;;;;48.27;25.27;;;0.60;99.90;;;;;;4146208;28;20801;-63
2023/02/24 04:50:33;;;;;;;51.37;26.83;;;0.70;99.90;;;;;;4145701;28;20256;-64
2023/02/24 04:52:34;;;;;;;49.45;25.23;;;0.70;99.90;;;;;;4156510;28;20276;-62
2023/02/24 04:54:37;;;;;;;51.33;25.57;;;0.70;99.90;;;;;;4143462;28;20164;-62
2023/02/24 04:56:39;;;;;;;57.83;27.20;;;0.70;99.90;;;;;;4146074;28;20360;-62
2023/02/24 04:58:42;;;;;;;47.13;25.20;;;0.70;99.90;;;;;;4143916;28;20291;-63
2023/02/24 05:00:47;;;;;;;55.43;25.70;;;0.80;99.90;;;;;;4144914;28;20752;-64
2023/02/24 05:02:50;;;;;;;60.17;26.63;;;0.80;99.90;;;;;;4154349;28;20275;-62
2023/02/24 05:04:51;;;;;;;71.00;31.73;;;0.80;99.90;;;;;;4158379;28;20322;-66
2023/02/24 05:06:56;;;;;;;58.03;30.43;;;0.80;99.90;;;;;;4159658;28;20313;-63
2023/02/24 05:08:57;;;;;;;63.63;28.90;;;0.80;99.90;;;;;;4160209;28;20271;-63
2023/02/24 05:11:02;;;;;;;56.97;30.17;;;0.80;99.90;;;;;;4161394;28;20356;-64
2023/02/24 05:13:05;;;;;;;59.00;27.20;;;0.80;99.90;;;;;;4158919;28;20612;-66
2023/02/24 05:15:07;;;;;;;53.90;27.73;;;0.80;99.90;;;;;;4161760;28;20321;-63
2023/02/24 05:17:11;;;;;;;67.53;27.27;;;0.90;99.90;;;;;;4160138;28;20298;-63
2023/02/24 05:21:34;;;;;;;50.00;26.10;;;0.90;99.90;;;;;;4151329;28;20321;-63
2023/02/24 05:23:44;;;;;;;59.43;29.53;;;0.90;99.90;;;;;;4149682;28;20314;-63
2023/02/24 05:25:45;;;;;;;90.83;32.27;;;0.90;99.90;;;;;;4144248;28;20264;-63
2023/02/24 05:27:46;;;;;;;57.50;28.03;;;1.00;99.90;;;;;;4152647;28;20755;-63
2023/02/24 05:29:48;;;;;;;57.87;28.83;;;1.00;99.90;;;;;;4160208;28;20275;-63
2023/02/24 05:31:49;;;;;;;61.57;30.40;;;1.00;99.90;;;;;;4160985;28;20267;-67
2023/02/24 05:33:56;;;;;;;61.37;30.63;;;1.00;99.90;;;;;;4158760;28;20607;-67
2023/02/24 05:36:02;;;;;;;66.37;32.90;;;1.10;99.90;;;;;;4161776;28;20285;-69
2023/02/24 05:38:07;;;;;;;60.30;29.07;;;1.10;99.90;;;;;;4158384;28;20365;-64
2023/02/24 05:40:12;;;;;;;78.63;39.13;;;1.20;99.90;;;;;;4161426;28;20392;-64
2023/02/24 05:42:13;;;;;;;68.53;36.17;;;1.20;99.90;;;;;;4160241;28;20278;-64
2023/02/24 05:44:22;;;;;;;66.63;32.50;;;1.20;99.90;;;;;;4150722;28;20337;-65
2023/02/24 05:46:28;;;;;;;49.27;26.43;;;1.20;99.90;;;;;;4144225;28;20671;-66
2023/02/24 05:48:33;;;;;;;112.80;54.93;;;1.20;99.90;;;;;;4144959;28;20283;-64
2023/02/24 05:50:35;;;;;;;59.63;30.90;;;1.20;99.90;;;;;;4143161;28;20330;-65
2023/02/24 05:52:36;;;;;;;52.80;26.50;;;1.20;99.90;;;;;;4144440;28;20767;-64
2023/02/24 05:54:40;;;;;;;52.87;27.40;;;1.10;99.90;;;;;;4144370;28;20766;-64
2023/02/24 05:56:42;;;;;;;57.73;28.23;;;1.10;99.90;;;;;;4143324;28;20268;-62
2023/02/24 05:58:44;;;;;;;65.53;35.00;;;1.10;99.90;;;;;;4143358;28;20275;-63
2023/02/24 06:00:45;;;;;;;75.57;40.40;;;1.10;99.90;;;;;;4143868;28;20267;-64
2023/02/24 06:02:49;;;;;;;70.80;36.00;;;1.10;99.90;;;;;;4146328;28;20263;-62
2023/02/24 06:04:52;;;;;;;69.13;36.97;;;1.10;99.90;;;;;;4143763;28;20795;-62
2023/02/24 06:06:53;;;;;;;52.03;28.57;;;1.20;99.90;;;;;;4143941;28;20325;-61
2023/02/24 06:08:56;;;;;;;50.63;25.60;;;1.30;99.90;;;;;;4143640;28;20252;-62
2023/02/24 06:10:58;;;;;;;55.83;28.50;;;1.30;99.90;;;;;;4144811;28;20743;-62
2023/02/24 06:13:01;;;;;;;52.00;27.43;;;1.30;99.90;;;;;;4143808;28;20267;-63
2023/02/24 06:15:06;;;;;;;47.37;25.80;;;1.40;99.90;;;;;;4144593;28;20268;-62
2023/02/24 06:17:07;;;;;;;68.33;28.53;;;1.40;99.90;;;;;;4143398;28;20392;-64
2023/02/24 06:19:10;;;;;;;56.13;26.80;;;1.40;99.90;;;;;;4144681;28;20309;-64
2023/02/24 06:21:11;;;;;;;57.17;27.77;;;1.40;99.90;;;;;;4142218;28;20271;-63
2023/02/24 06:23:15;;;;;;;68.07;39.07;;;1.50;99.90;;;;;;4144551;28;20271;-64
2023/02/24 06:25:17;;;;;;;107.43;57.63;;;1.50;99.90;;;;;;4143831;28;20325;-62
2023/02/24 06:27:23;;;;;;;89.93;48.77;;;1.50;99.90;;;;;;4144381;28;20279;-70
2023/02/24 06:29:28;;;;;;;62.87;33.90;;;1.50;99.90;;;;;;4144210;28;20581;-65
2023/02/24 06:31:29;;;;;;;51.80;26.90;;;1.60;99.90;;;;;;4143906;28;20735;-64
2023/02/24 06:33:30;;;;;;;50.33;25.10;;;1.50;99.90;;;;;;4143769;28;20361;-62
2023/02/24 06:35:31;;;;;;;62.60;35.00;;;1.50;99.90;;;;;;4143477;28;20751;-62
2023/02/24 06:37:34;;;;;;;69.70;36.17;;;1.40;99.90;;;;;;4143291;28;20299;-63
2023/02/24 06:39:35;;;;;;;56.60;30.13;;;1.40;99.90;;;;;;4143448;28;20291;-64
2023/02/24 06:41:37;;;;;;;58.70;29.90;;;1.50;99.90;;;;;;4144441;28;20341;-63
2023/02/24 06:43:43;;;;;;;69.00;36.37;;;1.50;99.90;;;;;;4143557;28;20690;-62
2023/02/24 06:45:44;;;;;;;65.87;36.13;;;1.50;99.90;;;;;;4144706;28;20274;-63
2023/02/24 06:47:47;;;;;;;61.60;32.47;;;1.60;99.90;;;;;;4143413;28;20271;-63
2023/02/24 06:49:48;;;;;;;63.77;29.87;;;1.70;99.90;;;;;;4144312;28;20275;-61
2023/02/24 06:51:51;;;;;;;74.13;37.70;;;1.80;99.90;;;;;;4143424;28;20267;-62
2023/02/24 06:53:52;;;;;;;61.57;31.27;;;1.90;99.90;;;;;;4147210;28;20358;-62
2023/02/24 06:55:54;;;;;;;60.10;31.27;;;1.90;99.90;;;;;;4146184;28;20309;-62
2023/02/24 06:57:57;;;;;;;68.17;29.20;;;1.90;99.90;;;;;;4147042;28;20341;-62
2023/02/24 06:59:58;;;;;;;59.17;28.70;;;2.00;99.90;;;;;;4146791;28;20354;-63
2023/02/24 07:02:02;;;;;;;62.87;29.97;;;2.10;99.90;;;;;;4147150;28;20263;-62
2023/02/24 07:06:28;;;;;;;63.17;31.27;;;2.30;99.90;;;;;;4146847;28;20267;-62
2023/02/24 07:08:29;;;;;;;54.40;30.77;;;2.30;99.90;;;;;;4146466;28;20259;-62
2023/02/24 07:10:31;;;;;;;67.00;33.03;;;2.50;99.90;;;;;;4146918;28;20263;-62
2023/02/24 07:12:33;;;;;;;60.73;29.70;;;2.50;99.90;;;;;;4146813;28;20349;-62
2023/02/24 07:14:35;;;;;;;63.27;30.60;;;2.50;99.90;;;;;;4146373;28;20318;-62
2023/02/24 07:16:40;;;;;;;61.37;29.37;;;2.60;99.90;;;;;;4146811;28;20259;-62
2023/02/24 07:18:42;;;;;;;61.30;29.50;;;2.70;99.90;;;;;;4145581;28;20625;-63
2023/02/24 07:20:45;;;;;;;69.97;32.97;;;2.70;99.90;;;;;;4145391;28;20337;-63
2023/02/24 07:22:47;;;;;;;78.37;35.80;;;2.70;99.90;;;;;;4144481;28;20276;-63
2023/02/24 07:24:48;;;;;;;77.30;35.77;;;2.80;99.90;;;;;;4146887;28;20272;-63
2023/02/24 07:26:55;;;;;;;84.97;35.73;;;2.80;99.90;;;;;;4144602;28;20322;-62
2023/02/24 07:28:56;;;;;;;80.63;36.23;;;3.00;99.90;;;;;;4146989;28;20263;-62
2023/02/24 07:30:57;;;;;;;73.40;34.13;;;3.10;99.90;;;;;;4146094;28;20346;-62
2023/02/24 07:32:59;;;;;;;79.70;33.97;;;3.30;99.90;;;;;;4146403;28;20288;-63
2023/02/24 07:35:00;;;;;;;72.53;33.13;;;3.40;99.90;;;;;;4145765;28;20275;-62
2023/02/24 07:37:06;;;;;;;74.00;35.03;;;3.60;99.90;;;;;;4146666;28;20762;-64
2023/02/24 07:39:08;;;;;;;87.37;38.30;;;3.70;99.90;;;;;;4145716;28;20306;-64
2023/02/24 07:41:11;;;;;;;88.27;36.70;;;3.90;99.90;;;;;;4146589;28;20636;-64
2023/02/24 07:43:14;;;;;;;84.40;37.13;;;4.00;99.90;;;;;;4145945;28;20689;-63
2023/02/24 07:45:15;;;;;;;86.83;36.87;;;4.20;99.90;;;;;;4144822;28;20683;-62
2023/02/24 07:47:17;;;;;;;71.63;32.27;;;4.40;99.90;;;;;;4146026;28;20287;-63
2023/02/24 07:49:22;;;;;;;63.30;29.93;;;4.60;99.90;;;;;;4145467;28;20671;-62
2023/02/24 07:51:25;;;;;;;48.97;22.57;;;4.70;99.90;;;;;;4146027;28;20264;-63
2023/02/24 07:53:27;;;;;;;44.47;23.40;;;4.90;99.90;;;;;;4145711;28;20263;-62
2023/02/24 07:55:30;;;;;;;50.47;22.53;;;4.90;99.90;;;;;;4146328;28;20282;-64
2023/02/24 07:57:32;;;;;;;49.87;23.40;;;4.90;99.90;;;;;;4145436;28;20346;-62
2023/02/24 07:59:36;;;;;;;56.73;25.43;;;4.90;99.90;;;;;;4146604;28;20272;-63
2023/02/24 08:01:37;;;;;;;59.47;25.47;;;4.80;99.90;;;;;;4145658;28;20275;-62
2023/02/24 08:03:40;;;;;;;58.47;34.57;;;4.70;99.90;;;;;;4145624;28;20386;-63
2023/02/24 08:05:42;;;;;;;50.67;28.83;;;4.70;99.90;;;;;;4145038;28;20732;-63
2023/02/24 08:07:48;;;;;;;53.97;29.27;;;4.70;99.90;;;;;;4146227;28;20325;-63
2023/02/24 08:12:20;;;;;;;45.47;21.83;;;4.70;99.90;;;;;;4146377;28;20803;-62
2023/02/24 08:14:31;;;;;;;42.43;22.37;;;4.70;99.90;;;;;;4145120;28;20633;-63
2023/02/24 08:16:41;;;;;;;46.53;22.20;;;4.80;99.90;;;;;;4146348;28;20271;-62
2023/02/24 08:18:47;;;;;;;41.65;20.80;;;4.70;99.90;;;;;;4145021;28;20299;-63
2023/02/24 08:20:51;;;;;;;44.97;22.40;;;4.70;99.90;;;;;;4146156;28;20030;-63
2023/02/24 08:22:54;;;;;;;38.23;20.07;;;4.70;99.90;;;;;;4145143;28;20255;-62
2023/02/24 08:24:59;;;;;;;46.33;24.03;;;4.70;99.90;;;;;;4146237;28;20313;-63
2023/02/24 08:27:07;;;;;;;42.63;23.27;;;4.60;99.90;;;;;;4143469;28;20271;-63
2023/02/24 08:29:08;;;;;;;37.53;20.93;;;4.60;99.90;;;;;;4145679;28;20306;-62
2023/02/24 08:31:11;;;;;;;34.50;20.73;;;4.60;99.90;;;;;;4145336;28;20321;-63
2023/02/24 08:33:22;;;;;;;40.10;19.93;;;4.60;99.90;;;;;;4145815;28;20337;-64
2023/02/24 08:35:30;;;;;;;37.60;21.38;;;4.60;99.90;;;;;;4144695;28;20639;-63
2023/02/24 08:37:38;;;;;;;45.57;23.40;;;4.60;99.90;;;;;;4145738;28;20038;-64
2023/02/24 08:39:39;;;;;;;43.23;23.30;;;4.50;99.90;;;;;;4144766;28;20310;-63
2023/02/24 08:41:50;;;;;;;41.73;22.00;;;4.40;99.90;;;;;;4145773;28;20317;-63
2023/02/24 08:43:51;;;;;;;38.58;21.42;;;4.40;99.90;;;;;;4144817;28;20313;-63
2023/02/24 08:45:55;;;;;;;45.03;19.00;;;4.40;99.90;;;;;;4145642;28;20099;-62
2023/02/24 08:47:59;;;;;;;39.43;19.50;;;4.40;99.90;;;;;;4145228;28;20644;-63
2023/02/24 08:50:00;;;;;;;35.13;18.90;;;4.40;99.90;;;;;;4145107;28;20689;-63
2023/02/24 08:52:06;;;;;;;32.07;18.07;;;4.40;99.90;;;;;;4145291;28;20260;-63
2023/02/24 08:54:14;;;;;;;34.93;17.67;;;4.50;99.90;;;;;;4145017;28;20260;-65
2023/02/24 08:56:22;;;;;;;39.37;18.90;;;4.50;99.90;;;;;;4145374;28;20263;-63
2023/02/24 08:58:27;;;;;;;38.47;17.33;;;4.70;99.90;;;;;;4144678;28;20767;-62
2023/02/24 09:00:47;;;;;;;35.33;18.43;;;4.60;99.90;;;;;;4145834;28;20260;-62
2023/02/24 09:02:49;;;;;;;41.38;19.58;;;4.60;99.90;;;;;;4144828;28;20385;-63
2023/02/24 09:04:57;;;;;;;40.03;19.20;;;4.60;99.90;;;;;;4145084;28;20042;-63
2023/02/24 09:07:01;;;;;;;41.90;19.30;;;4.60;99.90;;;;;;4144490;28;20361;-64
2023/02/24 09:09:19;;;;;;;38.60;20.33;;;4.60;99.90;;;;;;4145370;28;20268;-64
2023/02/24 09:11:21;;;;;;;42.43;19.33;;;4.60;99.90;;;;;;4144651;28;20358;-63
2023/02/24 09:13:22;;;;;;;40.37;20.73;;;4.60;99.90;;;;;;4145286;28;20267;-63
2023/02/24 09:15:24;;;;;;;34.80;20.60;;;4.60;99.90;;;;;;4143695;28;20345;-63
2023/02/24 09:17:48;;;;;;;41.40;21.50;;;4.60;99.90;;;;;;4145250;28;20264;-63
2023/02/24 09:23:52;;;;;;;40.87;23.20;;;4.50;99.90;;;;;;4144072;28;20275;-64
2023/02/24 09:25:53;;;;;;;41.97;23.07;;;4.50;99.90;;;;;;4145300;28;20360;-63
2023/02/24 09:28:07;;;;;;;42.33;22.13;;;4.50;99.90;;;;;;4144081;28;20267;-64
2023/02/24 09:30:34;;;;;;;40.53;22.63;;;4.40;99.90;;;;;;4145085;28;20276;-64
2023/02/24 09:32:33;;;;;;;48.33;23.13;;;4.40;99.90;;;;;;4143994;28;20304;-63
2023/02/24 09:34:42;;;;;;;41.67;23.00;;;4.30;99.90;;;;;;4145113;28;20259;-66
2023/02/24 09:37:00;;;;;;;46.63;24.00;;;4.30;99.90;;;;;;4144107;28;20334;-64
2023/02/24 09:41:08;;;;;;;40.47;23.10;;;4.30;99.90;;;;;;4144079;28;20349;-63
2023/02/24 09:43:16;;;;;;;48.63;24.37;;;4.30;99.90;;;;;;4144904;28;20331;-63
2023/02/24 09:45:31;;;;;;;45.23;25.53;;;4.30;99.90;;;;;;4143639;28;20345;-63
2023/02/24 09:47:38;;;;;;;45.93;24.30;;;4.30;99.90;;;;;;4144820;28;20707;-63
2023/02/24 09:49:54;;;;;;;40.63;23.17;;;4.30;99.90;;;;;;4143688;28;20334;-62
2023/02/24 09:51:59;;;;;;;38.40;21.60;;;4.30;99.90;;;;;;4145035;28;20260;-63
2023/02/24 09:54:02;;;;;;;44.13;21.87;;;4.30;99.90;;;;;;4143856;28;20259;-62
2023/02/24 09:56:35;;;;;;;41.77;22.70;;;4.30;99.90;;;;;;4144648;28;20330;-62
2023/02/24 09:59:08;;;;;;;44.00;23.83;;;4.30;99.90;;;;;;4122992;28;20307;-63
2023/02/24 10:01:32;;;;;;;46.93;21.70;;;4.30;99.90;;;;;;4144765;28;20318;-62
2023/02/24 10:03:46;;;;;;;42.70;23.07;;;4.30;99.90;;;;;;4144056;28;20279;-63
2023/02/24 10:06:10;;;;;;;49.53;23.40;;;4.30;99.90;;;;;;4144005;28;20322;-62
2023/02/24 10:08:26;;;;;;;58.43;33.30;;;4.40;99.90;;;;;;4144630;28;20306;-63
2023/02/24 10:10:35;;;;;;;44.00;25.33;;;4.40;99.90;;;;;;4143837;28;20310;-64
2023/02/24 10:12:38;;;;;;;44.03;24.20;;;4.50;99.90;;;;;;4144681;28;20276;-64
2023/02/24 10:15:30;;;;;;;48.63;24.43;;;4.60;99.90;;;;;;4143652;28;20275;-67
2023/02/24 10:17:39;;;;;;;42.60;24.77;;;4.70;99.90;;;;;;4144830;28;20297;-63
2023/02/24 10:19:41;;;;;;;41.37;22.70;;;4.80;99.90;;;;;;4143385;28;20339;-63
2023/02/24 10:22:02;;;;;;;37.70;21.47;;;4.80;99.90;;;;;;4144589;28;20328;-63
2023/02/24 10:24:13;;;;;;;;;;;4.90;99.90;;;;;;4144210;28;20310;-64
2023/02/24 10:26:30;;;;;;;42.42;22.75;;;5.00;99.90;;;;;;4144919;28;19951;-63
2023/02/24 10:28:59;;;;;;;38.00;21.70;;;5.10;99.90;;;;;;4145921;28;20564;-63
2023/02/24 10:31:08;;;;;;;43.23;24.40;;;5.20;99.90;;;;;;4147988;28;20341;-62
2023/02/24 10:33:19;;;;;;;43.30;23.37;;;5.20;99.90;;;;;;4146695;28;20295;-64
2023/02/24 10:35:24;;;;;;;42.53;22.08;;;5.30;99.90;;;;;;4147498;28;20750;-63
2023/02/24 10:37:27;;;;;;;42.87;22.07;;;5.40;99.90;;;;;;4146520;28;20037;-62
2023/02/24 10:39:32;;;;;;;50.43;23.40;;;5.40;99.90;;;;;;4147780;28;20037;-64
2023/02/24 10:41:44;;;;;;;43.37;24.20;;;5.40;99.90;;;;;;4146617;28;20667;-63
2023/02/24 10:43:56;;;;;;;47.67;24.13;;;5.40;99.90;;;;;;4147778;28;20025;-63
2023/02/24 10:46:05;;;;;;;47.67;24.40;;;5.40;99.90;;;;;;4146329;28;20341;-63
2023/02/24 10:48:07;;;;;;;50.10;24.83;;;5.40;99.90;;;;;;4147688;28;20033;-63
2023/02/24 10:50:24;;;;;;;50.13;25.63;;;5.40;99.90;;;;;;4146376;28;20030;-62
2023/02/24 10:55:07;;;;;;;43.60;24.30;;;5.50;99.90;;;;;;4146433;28;20118;-62
2023/02/24 10:57:17;;;;;;;42.90;23.73;;;5.60;99.90;;;;;;4147084;28;20802;-63
2023/02/24 11:02:22;;;;;;;48.00;24.37;;;5.70;99.90;;;;;;4147273;28;20164;-63
2023/02/24 11:04:21;;;;;;;41.33;22.63;;;5.80;99.90;;;;;;4144193;28;20096;-63
2023/02/24 11:07:08;;;;;;;39.10;21.97;;;5.90;99.90;;;;;;4146592;28;20025;-64
2023/02/24 11:09:17;;;;;;;49.43;24.60;;;6.00;99.90;;;;;;4143873;28;20042;-63
2023/02/24 11:11:24;;;;;;;47.47;24.97;;;6.10;99.90;;;;;;4145998;28;20033;-63